CheckWX is a tool to help pilots better visualize weather data.  It is not intended as a substitute for an official pre-flight weather briefing.

14:46:12 UTC

SABE METAR
Jorge Newbery Airpark Airport
Buenos Aires, Argentina
Current

46 mins ago

SABE 161400Z 35004KT CAVOK 12/06 Q1026 NOSIG
Observed
Jul-16 @ 14:00 UTC
Wind
  • 350° at 4 KTS
Visibility
10,000+ meters
Flight Rules
VFR
Cloud Levels
  • Clear skies
Temperature
12°C / 54°F
Dewpoint
C / 43°F
Humidity
67%
Altimeter
30.3" Hg
Pressure
1025.92 hPa
Previous

2 hours ago

SABE 161300Z 32003KT CAVOK 11/06 Q1025 NOSIG
Observed
Jul-16 @ 13:00 UTC
Wind
  • 320° at 3 KTS
Visibility
10,000+ meters
Flight Rules
VFR
Cloud Levels
  • Clear skies
Temperature
11°C / 52°F
Dewpoint
C / 43°F
Humidity
72%
Altimeter
30.27" Hg
Pressure
1024.92 hPa
Previous

3 hours ago

SABE 161200Z 00000KT CAVOK 10/05 Q1025 NOSIG
Observed
Jul-16 @ 12:00 UTC
Visibility
10,000+ meters
Flight Rules
VFR
Cloud Levels
  • Clear skies
Temperature
10°C / 50°F
Dewpoint
C / 41°F
Humidity
71%
Altimeter
30.27" Hg
Pressure
1024.92 hPa